createdAt,value
2018-05-21T00:00:34.564Z,993.52
2018-05-21T00:01:34.561Z,993.50
2018-05-21T00:02:34.556Z,993.52
2018-05-21T00:03:34.546Z,993.52
2018-05-21T00:04:34.538Z,993.53
2018-05-21T00:05:34.532Z,993.50
2018-05-21T00:06:34.532Z,993.48
2018-05-21T00:07:34.523Z,993.49
2018-05-21T00:08:34.516Z,993.45
2018-05-21T00:09:34.511Z,993.45
2018-05-21T00:10:34.504Z,993.48
2018-05-21T00:11:34.500Z,993.47
2018-05-21T00:12:34.494Z,993.47
2018-05-21T00:13:34.489Z,993.51
2018-05-21T00:14:34.483Z,993.45
2018-05-21T00:15:34.477Z,993.43
2018-05-21T00:16:34.472Z,993.47
2018-05-21T00:17:34.466Z,993.47
2018-05-21T00:18:34.460Z,993.49
2018-05-21T00:19:34.454Z,993.48
2018-05-21T00:20:34.448Z,993.48
2018-05-21T00:21:34.445Z,993.46
2018-05-21T00:22:34.437Z,993.46
2018-05-21T00:23:34.433Z,993.48
2018-05-21T00:24:34.424Z,993.43
2018-05-21T00:25:34.419Z,993.41
2018-05-21T00:26:34.414Z,993.45
2018-05-21T00:27:34.408Z,993.39
2018-05-21T00:28:34.401Z,993.42
2018-05-21T00:29:34.401Z,993.46
2018-05-21T00:30:34.390Z,993.40
2018-05-21T00:31:34.386Z,993.39
2018-05-21T00:32:34.381Z,993.41
2018-05-21T00:33:34.374Z,993.45
2018-05-21T00:34:34.368Z,993.41
2018-05-21T00:35:34.366Z,993.41
2018-05-21T00:36:34.356Z,993.36
2018-05-21T00:37:34.351Z,993.33
2018-05-21T00:38:34.363Z,993.36
2018-05-21T00:39:34.339Z,993.36
2018-05-21T00:40:34.332Z,993.40
2018-05-21T00:41:34.354Z,993.37
2018-05-21T00:42:34.323Z,993.33
2018-05-21T00:43:34.315Z,993.34
2018-05-21T00:44:34.311Z,993.36
2018-05-21T00:45:34.305Z,993.33
2018-05-21T00:46:34.300Z,993.29
2018-05-21T00:47:34.296Z,993.33
2018-05-21T00:48:34.290Z,993.33
2018-05-21T00:49:34.282Z,993.31
2018-05-21T00:50:34.275Z,993.33
2018-05-21T00:51:34.271Z,993.33
2018-05-21T00:52:34.264Z,993.31
2018-05-21T00:53:34.259Z,993.32
2018-05-21T00:54:34.254Z,993.33
2018-05-21T00:55:34.249Z,993.30
2018-05-21T00:56:34.242Z,993.27
2018-05-21T00:57:34.240Z,993.28
2018-05-21T00:58:34.230Z,993.30
2018-05-21T00:59:34.224Z,993.28
2018-05-21T01:00:34.218Z,993.29
2018-05-21T01:01:34.215Z,993.22
2018-05-21T01:02:34.209Z,993.26
2018-05-21T01:03:34.203Z,993.22
2018-05-21T01:04:34.198Z,993.23
2018-05-21T01:05:34.192Z,993.26
2018-05-21T01:06:34.185Z,993.20
2018-05-21T01:07:34.196Z,993.21
2018-05-21T01:08:34.173Z,993.22
2018-05-21T01:09:34.168Z,993.23
2018-05-21T01:10:34.161Z,993.20
2018-05-21T01:11:34.157Z,993.25
2018-05-21T01:12:34.151Z,993.24
2018-05-21T01:13:34.148Z,993.25
2018-05-21T01:14:34.139Z,993.29
2018-05-21T01:15:34.172Z,993.25
2018-05-21T01:16:34.127Z,993.22
2018-05-21T01:17:34.123Z,993.22
2018-05-21T01:18:34.115Z,993.24
2018-05-21T01:19:34.110Z,993.22
2018-05-21T01:20:34.104Z,993.22
2018-05-21T01:21:34.098Z,993.23
2018-05-21T01:22:34.093Z,993.22
2018-05-21T01:23:34.089Z,993.22
2018-05-21T01:24:34.089Z,993.27
2018-05-21T01:25:34.077Z,993.21
2018-05-21T01:26:34.069Z,993.20
2018-05-21T01:27:34.065Z,993.23
2018-05-21T01:28:34.060Z,993.21
2018-05-21T01:29:34.052Z,993.21
2018-05-21T01:30:34.048Z,993.25
2018-05-21T01:31:34.042Z,993.27
2018-05-21T01:32:34.034Z,993.22
2018-05-21T01:33:34.029Z,993.26
2018-05-21T01:34:34.023Z,993.21
2018-05-21T01:35:34.019Z,993.22
2018-05-21T01:36:34.013Z,993.20
2018-05-21T01:37:34.006Z,993.23
2018-05-21T01:38:34.004Z,993.25
2018-05-21T01:39:33.996Z,993.27
2018-05-21T01:40:33.988Z,993.23
2018-05-21T01:41:33.984Z,993.23
2018-05-21T01:42:33.981Z,993.19
2018-05-21T01:43:33.973Z,993.23
2018-05-21T01:44:33.967Z,993.22
2018-05-21T01:45:33.962Z,993.19
2018-05-21T01:46:33.955Z,993.17
2018-05-21T01:47:33.949Z,993.22
2018-05-21T01:48:33.944Z,993.12
2018-05-21T01:49:33.938Z,993.13
2018-05-21T01:50:33.937Z,993.14
2018-05-21T01:51:33.927Z,993.11
2018-05-21T01:52:33.920Z,993.08
2018-05-21T01:53:33.914Z,993.12
2018-05-21T01:54:33.915Z,993.08
2018-05-21T01:55:33.902Z,993.07
2018-05-21T01:56:33.899Z,993.08
2018-05-21T01:57:33.896Z,993.09
2018-05-21T01:58:33.886Z,993.07
2018-05-21T01:59:33.881Z,993.12
2018-05-21T02:00:33.874Z,993.08
2018-05-21T02:01:33.874Z,993.10
2018-05-21T02:02:33.866Z,993.11
2018-05-21T02:03:33.858Z,993.10
2018-05-21T02:04:33.854Z,993.09
2018-05-21T02:05:33.846Z,993.14
2018-05-21T02:06:33.839Z,993.07
2018-05-21T02:07:33.835Z,993.07
2018-05-21T02:08:33.907Z,993.09
2018-05-21T02:09:33.823Z,993.07
2018-05-21T02:10:33.817Z,993.07
2018-05-21T02:11:33.812Z,993.06
2018-05-21T02:12:33.807Z,993.06
2018-05-21T02:13:33.800Z,993.03
2018-05-21T02:14:33.794Z,993.05
2018-05-21T02:15:33.790Z,993.02
2018-05-21T02:16:33.782Z,992.98
2018-05-21T02:17:33.777Z,993.01
2018-05-21T02:18:33.773Z,993.02
2018-05-21T02:19:33.766Z,993.02
2018-05-21T02:20:33.759Z,992.99
2018-05-21T02:21:33.754Z,992.98
2018-05-21T02:22:33.748Z,992.94
2018-05-21T02:23:33.746Z,992.93
2018-05-21T02:24:33.739Z,992.93
2018-05-21T02:25:33.731Z,992.94
2018-05-21T02:26:33.728Z,992.95
2018-05-21T02:27:33.720Z,992.94
2018-05-21T02:28:33.717Z,992.94
2018-05-21T02:29:33.708Z,992.93
2018-05-21T02:30:33.702Z,992.93
2018-05-21T02:31:33.697Z,992.95
2018-05-21T02:32:33.690Z,992.94
2018-05-21T02:33:33.684Z,992.92
2018-05-21T02:34:33.683Z,992.93
2018-05-21T02:35:33.674Z,992.90
2018-05-21T02:36:33.670Z,992.89
2018-05-21T02:37:33.661Z,992.92
2018-05-21T02:38:33.657Z,992.91
2018-05-21T02:39:33.654Z,992.88
2018-05-21T02:40:33.643Z,992.92
2018-05-21T02:41:33.638Z,992.90
2018-05-21T02:42:33.633Z,992.86
2018-05-21T02:43:33.629Z,992.92
2018-05-21T02:44:33.621Z,992.88
2018-05-21T02:45:33.615Z,992.89
2018-05-21T02:46:33.608Z,992.92
2018-05-21T02:47:33.605Z,992.90
2018-05-21T02:48:33.598Z,992.93
2018-05-21T02:49:33.598Z,992.86
2018-05-21T02:50:33.598Z,992.84
2018-05-21T02:51:33.586Z,992.88
2018-05-21T02:52:33.574Z,992.87
2018-05-21T02:53:33.569Z,992.86
2018-05-21T02:54:33.562Z,992.83
2018-05-21T02:55:33.557Z,992.87
2018-05-21T02:56:33.551Z,992.83
2018-05-21T02:57:33.547Z,992.83
2018-05-21T02:58:33.541Z,992.84
2018-05-21T02:59:33.535Z,992.82
2018-05-21T03:00:33.527Z,992.85
2018-05-21T03:01:33.521Z,992.82
2018-05-21T03:02:33.517Z,992.84
2018-05-21T03:03:33.512Z,992.80
2018-05-21T03:04:33.505Z,992.80
2018-05-21T03:05:33.504Z,992.81
2018-05-21T03:06:33.494Z,992.86
2018-05-21T03:07:33.488Z,992.81
2018-05-21T03:08:33.483Z,992.79
2018-05-21T03:09:33.478Z,992.82
2018-05-21T03:10:33.471Z,992.82
2018-05-21T03:11:33.467Z,992.78
2018-05-21T03:12:33.457Z,992.82
2018-05-21T03:13:33.457Z,992.80
2018-05-21T03:14:33.448Z,992.83
2018-05-21T03:15:33.443Z,992.83
2018-05-21T03:16:33.429Z,992.84
2018-05-21T03:17:33.430Z,992.81
2018-05-21T03:18:33.426Z,992.78
2018-05-21T03:19:33.422Z,992.77
2018-05-21T03:20:33.412Z,992.80
2018-05-21T03:21:33.408Z,992.79
2018-05-21T03:22:33.402Z,992.80
2018-05-21T03:23:33.396Z,992.76
2018-05-21T03:24:33.392Z,992.79
2018-05-21T03:25:33.384Z,992.76
2018-05-21T03:26:33.379Z,992.73
2018-05-21T03:27:33.371Z,992.77
2018-05-21T03:28:33.367Z,992.81
2018-05-21T03:29:33.362Z,992.76
2018-05-21T03:30:33.356Z,992.82
2018-05-21T03:31:33.350Z,992.81
2018-05-21T03:32:33.373Z,992.77
2018-05-21T03:33:33.337Z,992.81
2018-05-21T03:34:33.331Z,992.76
2018-05-21T03:35:33.327Z,992.78
2018-05-21T03:36:33.321Z,992.74
2018-05-21T03:37:33.313Z,992.77
2018-05-21T03:38:33.308Z,992.75
2018-05-21T03:39:33.303Z,992.73
2018-05-21T03:40:33.297Z,992.77
2018-05-21T03:41:33.295Z,992.76
2018-05-21T03:42:33.285Z,992.76
2018-05-21T03:43:33.281Z,992.74
2018-05-21T03:44:33.274Z,992.77
2018-05-21T03:45:33.269Z,992.78
2018-05-21T03:46:33.264Z,992.80
2018-05-21T03:47:33.258Z,992.75
2018-05-21T03:48:33.250Z,992.78
2018-05-21T03:49:33.246Z,992.79
2018-05-21T03:50:33.243Z,992.77
2018-05-21T03:51:33.233Z,992.86
2018-05-21T03:52:33.230Z,992.83
2018-05-21T03:53:33.222Z,992.86
2018-05-21T03:54:33.216Z,992.83
2018-05-21T03:55:33.217Z,992.83
2018-05-21T03:56:33.208Z,992.82
2018-05-21T03:57:33.199Z,992.83
2018-05-21T03:58:33.193Z,992.80
2018-05-21T03:59:33.188Z,992.78
2018-05-21T04:00:33.183Z,992.81
2018-05-21T04:01:33.176Z,992.82
2018-05-21T04:02:33.171Z,992.85
2018-05-21T04:03:33.165Z,992.82
2018-05-21T04:04:33.223Z,992.79
2018-05-21T04:05:33.153Z,992.78
2018-05-21T04:06:33.147Z,992.78
2018-05-21T04:07:33.142Z,992.76
2018-05-21T04:08:33.146Z,992.77
2018-05-21T04:09:33.133Z,992.74
2018-05-21T04:10:33.124Z,992.72
2018-05-21T04:11:33.120Z,992.76
2018-05-21T04:12:33.112Z,992.75
2018-05-21T04:13:33.106Z,992.74
2018-05-21T04:14:33.101Z,992.74
2018-05-21T04:15:33.096Z,992.77
2018-05-21T04:16:33.090Z,992.68
2018-05-21T04:17:33.084Z,992.77
2018-05-21T04:18:33.078Z,992.80
2018-05-21T04:19:33.073Z,992.75
2018-05-21T04:20:33.076Z,992.78
2018-05-21T04:21:33.060Z,992.67
2018-05-21T04:22:33.055Z,992.71
2018-05-21T04:23:33.050Z,992.73
2018-05-21T04:24:33.043Z,992.73
2018-05-21T04:25:33.044Z,992.70
2018-05-21T04:26:33.032Z,992.76
2018-05-21T04:27:33.025Z,992.66
2018-05-21T04:28:33.023Z,992.69
2018-05-21T04:29:33.016Z,992.64
2018-05-21T04:30:33.009Z,992.76
2018-05-21T04:31:33.004Z,992.71
2018-05-21T04:32:33.078Z,992.70
2018-05-21T04:33:32.994Z,992.71
2018-05-21T04:34:32.985Z,992.68
2018-05-21T04:35:32.980Z,992.74
2018-05-21T04:36:32.980Z,992.74
2018-05-21T04:37:32.969Z,992.78
2018-05-21T04:38:32.963Z,992.74
2018-05-21T04:39:32.957Z,992.76
2018-05-21T04:40:32.953Z,992.79
2018-05-21T04:41:32.945Z,992.74
2018-05-21T04:42:32.940Z,992.75
2018-05-21T04:43:32.935Z,992.76
2018-05-21T04:44:32.927Z,992.80
2018-05-21T04:45:32.924Z,992.80
2018-05-21T04:46:32.918Z,992.78
2018-05-21T04:47:32.911Z,992.78
2018-05-21T04:48:32.904Z,992.78
2018-05-21T04:49:32.899Z,992.78
2018-05-21T04:50:32.893Z,992.74
2018-05-21T04:51:32.887Z,992.76
2018-05-21T04:52:32.882Z,992.74
2018-05-21T04:53:32.877Z,992.74
2018-05-21T04:54:32.872Z,992.78
2018-05-21T04:55:32.866Z,992.75
2018-05-21T04:56:32.860Z,992.71
2018-05-21T04:57:32.853Z,992.79
2018-05-21T04:58:32.849Z,992.69
2018-05-21T04:59:32.843Z,992.69
2018-05-21T05:00:32.836Z,992.73
2018-05-21T05:01:32.831Z,992.71
2018-05-21T05:02:32.826Z,992.68
2018-05-21T05:03:32.820Z,992.66
2018-05-21T05:04:32.838Z,992.68
2018-05-21T05:05:32.808Z,992.75
2018-05-21T05:06:32.805Z,992.67
2018-05-21T05:07:32.801Z,992.64
2018-05-21T05:08:32.790Z,992.70
2018-05-21T05:09:32.784Z,992.65
2018-05-21T05:10:32.779Z,992.63
2018-05-21T05:11:32.774Z,992.64
2018-05-21T05:12:32.767Z,992.65
2018-05-21T05:13:32.762Z,992.65
2018-05-21T05:14:32.755Z,992.64
2018-05-21T05:15:32.747Z,992.61
2018-05-21T05:16:32.744Z,992.62
2018-05-21T05:17:32.738Z,992.60
2018-05-21T05:18:32.733Z,992.61
2018-05-21T05:19:32.728Z,992.62
2018-05-21T05:20:32.725Z,992.62
2018-05-21T05:21:32.752Z,992.65
2018-05-21T05:22:32.711Z,992.60
2018-05-21T05:23:32.705Z,992.64
2018-05-21T05:24:32.700Z,992.63
2018-05-21T05:25:32.690Z,992.60
2018-05-21T05:26:32.715Z,992.60
2018-05-21T05:27:32.682Z,992.61
2018-05-21T05:28:32.679Z,992.61
2018-05-21T05:29:32.671Z,992.58
2018-05-21T05:30:32.664Z,992.58
2018-05-21T05:31:32.660Z,992.64
2018-05-21T05:32:32.653Z,992.60
2018-05-21T05:33:32.652Z,992.61
2018-05-21T05:34:32.642Z,992.59
2018-05-21T05:35:32.636Z,992.57
2018-05-21T05:36:32.630Z,992.57
2018-05-21T05:37:32.634Z,992.54
2018-05-21T05:38:32.619Z,992.54
2018-05-21T05:39:32.615Z,992.54
2018-05-21T05:40:32.616Z,992.54
2018-05-21T05:41:32.601Z,992.55
2018-05-21T05:42:32.598Z,992.53
2018-05-21T05:43:32.592Z,992.55
2018-05-21T05:44:32.590Z,992.52
2018-05-21T05:45:32.579Z,992.57
2018-05-21T05:46:32.572Z,992.57
2018-05-21T05:47:32.567Z,992.54
2018-05-21T05:48:32.563Z,992.55
2018-05-21T05:49:32.556Z,992.56
2018-05-21T05:50:32.552Z,992.58
2018-05-21T05:51:32.546Z,992.56
2018-05-21T05:52:32.541Z,992.57
2018-05-21T05:53:32.533Z,992.57
2018-05-21T05:54:32.528Z,992.56
2018-05-21T05:55:32.519Z,992.61
2018-05-21T05:56:32.516Z,992.56
2018-05-21T05:57:32.510Z,992.55
2018-05-21T05:58:32.506Z,992.53
2018-05-21T05:59:32.499Z,992.78
2018-05-21T06:00:32.493Z,992.61
2018-05-21T06:01:32.488Z,992.51
2018-05-21T06:02:32.482Z,992.50
2018-05-21T06:03:32.512Z,992.50
2018-05-21T06:04:32.470Z,992.53
2018-05-21T06:05:32.464Z,992.49
2018-05-21T06:06:32.460Z,992.47
2018-05-21T06:07:32.454Z,992.46
2018-05-21T06:08:32.447Z,992.41
2018-05-21T06:09:32.441Z,992.44
2018-05-21T06:10:32.441Z,992.43
2018-05-21T06:11:32.433Z,992.46
2018-05-21T06:12:32.427Z,992.45
2018-05-21T06:13:32.419Z,992.41
2018-05-21T06:14:32.415Z,992.45
2018-05-21T06:15:32.408Z,992.45
2018-05-21T06:16:32.403Z,992.41
2018-05-21T06:17:32.398Z,992.41
2018-05-21T06:18:32.392Z,992.43
2018-05-21T06:19:32.387Z,992.42
2018-05-21T06:20:32.380Z,992.39
2018-05-21T06:21:32.375Z,992.42
2018-05-21T06:22:32.368Z,992.38
2018-05-21T06:23:32.365Z,992.44
2018-05-21T06:24:32.357Z,992.47
2018-05-21T06:25:32.355Z,992.43
2018-05-21T06:26:32.346Z,992.43
2018-05-21T06:27:32.340Z,992.41
2018-05-21T06:28:32.333Z,992.39
2018-05-21T06:29:32.329Z,992.42
2018-05-21T06:30:32.334Z,992.39
2018-05-21T06:31:32.318Z,992.40
2018-05-21T06:32:32.313Z,992.37
2018-05-21T06:33:32.308Z,992.44
2018-05-21T06:34:32.362Z,992.35
2018-05-21T06:35:32.295Z,992.39
2018-05-21T06:36:32.292Z,992.43
2018-05-21T06:37:32.284Z,992.39
2018-05-21T06:38:32.278Z,992.31
2018-05-21T06:39:32.275Z,992.38
2018-05-21T06:40:32.267Z,992.45
2018-05-21T06:41:32.263Z,992.34
2018-05-21T06:42:32.264Z,992.36
2018-05-21T06:43:32.251Z,992.42
2018-05-21T06:44:32.246Z,992.36
2018-05-21T06:45:32.239Z,992.30
2018-05-21T06:46:32.274Z,992.33
2018-05-21T06:47:32.229Z,992.28
2018-05-21T06:48:32.228Z,992.32
2018-05-21T06:49:32.218Z,992.31
2018-05-21T06:50:32.217Z,992.35
2018-05-21T06:51:32.207Z,992.32
2018-05-21T06:52:32.199Z,992.38
2018-05-21T06:53:32.196Z,992.39
2018-05-21T06:54:32.191Z,992.34
2018-05-21T06:55:32.187Z,992.35
2018-05-21T06:56:32.181Z,992.34
2018-05-21T06:57:32.175Z,992.40
2018-05-21T06:58:32.167Z,992.45
2018-05-21T06:59:32.163Z,992.40
2018-05-21T07:00:32.159Z,992.42
2018-05-21T07:01:32.150Z,992.40
2018-05-21T07:02:32.149Z,992.49
2018-05-21T07:03:32.141Z,992.36
2018-05-21T07:04:32.134Z,992.39
2018-05-21T07:05:32.129Z,992.37
2018-05-21T07:06:32.125Z,992.39
2018-05-21T07:07:32.119Z,992.32
2018-05-21T07:08:32.114Z,992.33
2018-05-21T07:09:32.110Z,992.35
2018-05-21T07:10:32.100Z,992.33
2018-05-21T07:11:32.099Z,992.34
2018-05-21T07:12:32.090Z,992.28
2018-05-21T07:13:32.085Z,992.31
2018-05-21T07:14:32.079Z,992.33
2018-05-21T07:15:32.075Z,992.29
2018-05-21T07:16:32.068Z,992.29
2018-05-21T07:17:32.063Z,992.34
2018-05-21T07:18:32.057Z,992.34
2018-05-21T07:19:32.053Z,992.33
2018-05-21T07:20:32.055Z,992.38
2018-05-21T07:21:32.040Z,992.31
2018-05-21T07:22:32.034Z,992.31
2018-05-21T07:23:32.033Z,992.26
2018-05-21T07:24:32.042Z,992.27
2018-05-21T07:25:32.021Z,992.27
2018-05-21T07:26:32.014Z,992.30
2018-05-21T07:27:32.008Z,992.30
2018-05-21T07:28:32.003Z,992.24
2018-05-21T07:29:31.997Z,992.22
2018-05-21T07:30:31.991Z,992.27
2018-05-21T07:31:32.068Z,992.26
2018-05-21T07:32:31.981Z,992.26
2018-05-21T07:33:31.978Z,992.19
2018-05-21T07:34:31.972Z,992.22
2018-05-21T07:35:31.966Z,992.17
2018-05-21T07:36:31.959Z,992.23
2018-05-21T07:37:31.954Z,992.25
2018-05-21T07:38:31.949Z,992.26
2018-05-21T07:39:31.944Z,992.34
2018-05-21T07:40:31.938Z,992.24
2018-05-21T07:41:31.955Z,992.20
2018-05-21T07:42:31.932Z,992.20
2018-05-21T07:43:31.940Z,992.21
2018-05-21T07:44:31.917Z,992.16
2018-05-21T07:45:31.912Z,992.20
2018-05-21T07:46:31.908Z,992.18
2018-05-21T07:47:31.901Z,992.17
2018-05-21T07:48:31.895Z,992.14
2018-05-21T07:49:31.892Z,992.20
2018-05-21T07:50:31.884Z,992.13
2018-05-21T07:51:31.966Z,992.15
2018-05-21T07:52:31.873Z,992.10
2018-05-21T07:53:31.868Z,992.12
2018-05-21T07:54:31.864Z,992.11
2018-05-21T07:55:31.858Z,992.16
2018-05-21T07:56:31.854Z,992.08
2018-05-21T07:57:31.850Z,992.14
2018-05-21T07:58:31.843Z,992.16
2018-05-21T07:59:31.841Z,992.02
2018-05-21T08:00:31.834Z,992.16
2018-05-21T08:01:31.827Z,992.06
2018-05-21T08:02:31.823Z,992.07
2018-05-21T08:03:31.816Z,992.02
2018-05-21T08:04:31.814Z,992.02
2018-05-21T08:05:31.804Z,992.00
2018-05-21T08:06:31.801Z,992.00
2018-05-21T08:07:31.792Z,991.99
2018-05-21T08:08:31.803Z,991.98
2018-05-21T08:09:31.782Z,992.01
2018-05-21T08:10:31.777Z,991.92
2018-05-21T08:11:31.770Z,992.02
2018-05-21T08:12:31.763Z,991.92
2018-05-21T08:13:31.757Z,991.89
2018-05-21T08:14:31.843Z,991.87
2018-05-21T08:15:31.749Z,991.89
2018-05-21T08:16:31.739Z,991.85
2018-05-21T08:17:31.741Z,991.89
2018-05-21T08:18:31.733Z,991.84
2018-05-21T08:19:31.725Z,991.93
2018-05-21T08:20:31.719Z,991.89
2018-05-21T08:21:31.711Z,991.84
2018-05-21T08:22:31.709Z,991.83
2018-05-21T08:23:31.705Z,991.81
2018-05-21T08:24:31.694Z,991.79
2018-05-21T08:25:31.689Z,991.84
2018-05-21T08:26:31.683Z,991.89
2018-05-21T08:27:31.677Z,991.86
2018-05-21T08:28:31.669Z,991.81
2018-05-21T08:29:31.668Z,991.84
2018-05-21T08:30:31.659Z,991.83
2018-05-21T08:31:31.651Z,991.86
2018-05-21T08:32:31.647Z,991.92
2018-05-21T08:33:31.639Z,991.84
2018-05-21T08:34:31.633Z,991.89
2018-05-21T08:35:31.630Z,991.83
2018-05-21T08:36:31.621Z,991.81
2018-05-21T08:37:31.619Z,991.88
2018-05-21T08:38:31.612Z,991.87
2018-05-21T08:39:31.681Z,991.84
2018-05-21T08:40:31.599Z,991.77
2018-05-21T08:41:31.592Z,991.85
2018-05-21T08:42:31.590Z,991.83
2018-05-21T08:43:31.582Z,991.78
2018-05-21T08:44:31.579Z,991.81
2018-05-21T08:45:31.571Z,991.73
2018-05-21T08:46:31.561Z,991.71
2018-05-21T08:47:31.561Z,991.74
2018-05-21T08:48:31.644Z,991.73
2018-05-21T08:49:32.173Z,991.72
2018-05-21T08:50:31.537Z,991.77
2018-05-21T08:51:31.532Z,991.75
2018-05-21T08:52:31.528Z,991.70
2018-05-21T08:53:31.524Z,991.72
2018-05-21T08:54:31.519Z,991.71
2018-05-21T08:55:31.509Z,991.69
2018-05-21T08:56:31.511Z,991.65
2018-05-21T08:57:31.498Z,991.63
2018-05-21T08:58:31.492Z,991.74
2018-05-21T08:59:31.487Z,991.66
2018-05-21T09:00:31.505Z,991.60
2018-05-21T09:01:31.471Z,991.62
2018-05-21T09:02:31.469Z,991.64
2018-05-21T09:03:31.467Z,991.63
2018-05-21T09:04:31.455Z,991.59
2018-05-21T09:05:31.454Z,991.53
2018-05-21T09:06:31.445Z,991.55
2018-05-21T09:07:31.439Z,991.56
2018-05-21T09:08:31.436Z,991.60
2018-05-21T09:09:31.425Z,991.56
2018-05-21T09:10:31.424Z,991.54
2018-05-21T09:11:31.417Z,991.51
2018-05-21T09:12:31.474Z,991.57
2018-05-21T09:13:31.406Z,991.55
2018-05-21T09:14:31.402Z,991.51
2018-05-21T09:15:31.393Z,991.46
2018-05-21T09:16:31.445Z,991.51
2018-05-21T09:17:31.384Z,991.45
2018-05-21T09:18:31.379Z,991.50
2018-05-21T09:19:31.372Z,991.47
2018-05-21T09:20:31.367Z,991.47
2018-05-21T09:21:31.359Z,991.51
2018-05-21T09:22:31.375Z,991.47
2018-05-21T09:23:31.348Z,991.47
2018-05-21T09:24:31.341Z,991.40
2018-05-21T09:25:31.335Z,991.44
2018-05-21T09:26:31.354Z,991.41
2018-05-21T09:27:31.330Z,991.36
2018-05-21T09:28:31.314Z,991.44
2018-05-21T09:29:31.316Z,991.40
2018-05-21T09:30:31.308Z,991.42
2018-05-21T09:31:31.307Z,991.40
2018-05-21T09:32:31.343Z,991.40
2018-05-21T09:33:31.311Z,991.39
2018-05-21T09:34:31.294Z,991.49
2018-05-21T09:35:31.284Z,991.42
2018-05-21T09:36:31.276Z,991.36
2018-05-21T09:37:31.268Z,991.34
2018-05-21T09:38:31.280Z,991.37
2018-05-21T09:39:31.259Z,991.31
2018-05-21T09:40:31.253Z,991.39
2018-05-21T09:41:31.250Z,991.32
2018-05-21T09:42:31.243Z,991.29
2018-05-21T09:43:31.243Z,991.30
2018-05-21T09:44:31.224Z,991.39
2018-05-21T09:45:31.238Z,991.38
2018-05-21T09:46:31.217Z,991.35
2018-05-21T09:47:31.219Z,991.35
2018-05-21T09:48:31.212Z,991.28
2018-05-21T09:49:31.205Z,991.35
2018-05-21T09:50:31.286Z,991.31
2018-05-21T09:51:31.195Z,991.31
2018-05-21T09:52:31.186Z,991.26
2018-05-21T09:53:31.183Z,991.36
2018-05-21T09:54:31.183Z,991.30
2018-05-21T09:55:31.171Z,991.29
2018-05-21T09:56:31.167Z,991.25
2018-05-21T09:57:31.159Z,991.27
2018-05-21T09:58:31.155Z,991.24
2018-05-21T09:59:31.153Z,991.21
2018-05-21T10:00:31.144Z,991.24
2018-05-21T10:01:31.140Z,991.31
2018-05-21T10:02:31.133Z,991.22
2018-05-21T10:03:31.128Z,991.28
2018-05-21T10:04:31.122Z,991.24
2018-05-21T10:05:31.116Z,991.30
2018-05-21T10:06:31.115Z,991.27
2018-05-21T10:07:31.105Z,991.18
2018-05-21T10:08:31.103Z,991.17
2018-05-21T10:09:31.096Z,991.19
2018-05-21T10:10:31.094Z,991.13
2018-05-21T10:11:31.085Z,991.17
2018-05-21T10:12:31.085Z,991.10
2018-05-21T10:13:31.082Z,991.08
2018-05-21T10:14:31.067Z,991.08
2018-05-21T10:15:31.065Z,991.05
2018-05-21T10:16:31.060Z,991.13
2018-05-21T10:17:31.056Z,991.14
2018-05-21T10:18:31.050Z,991.13
2018-05-21T10:19:31.051Z,991.08
2018-05-21T10:20:31.044Z,991.11
2018-05-21T10:21:31.032Z,991.11
2018-05-21T10:22:31.037Z,991.12
2018-05-21T10:23:31.026Z,991.11
2018-05-21T10:24:31.019Z,991.05
2018-05-21T10:25:31.014Z,991.07
2018-05-21T10:26:31.005Z,991.01
2018-05-21T10:27:31.060Z,991.02
2018-05-21T10:28:30.989Z,991.08
2018-05-21T10:29:30.992Z,991.04
2018-05-21T10:30:30.990Z,991.01
2018-05-21T10:31:30.980Z,990.99
2018-05-21T10:32:30.977Z,991.02
2018-05-21T10:33:30.971Z,990.97
2018-05-21T10:34:30.966Z,990.96
2018-05-21T10:35:30.961Z,990.98
2018-05-21T10:36:30.959Z,991.01
2018-05-21T10:37:30.952Z,991.01
2018-05-21T10:38:30.946Z,991.01
2018-05-21T10:39:30.944Z,990.98
2018-05-21T10:40:30.936Z,991.02
2018-05-21T10:41:30.933Z,990.93
2018-05-21T10:42:30.926Z,990.93
2018-05-21T10:43:31.078Z,990.92
2018-05-21T10:44:30.917Z,990.91
2018-05-21T10:45:30.917Z,990.93
2018-05-21T10:46:30.906Z,990.85
2018-05-21T10:47:30.916Z,990.83
2018-05-21T10:48:30.896Z,990.83
2018-05-21T10:49:30.887Z,990.88
2018-05-21T10:50:30.886Z,990.85
2018-05-21T10:51:30.945Z,990.81
2018-05-21T10:52:30.880Z,990.77
2018-05-21T10:53:31.737Z,990.82
2018-05-21T10:54:30.865Z,990.80
2018-05-21T10:55:30.859Z,990.80
2018-05-21T10:56:30.856Z,990.79
2018-05-21T10:57:30.853Z,990.75
2018-05-21T10:58:30.846Z,990.79
2018-05-21T10:59:30.840Z,990.77
2018-05-21T11:00:30.833Z,990.81
2018-05-21T11:01:30.829Z,990.77
2018-05-21T11:02:30.824Z,990.90
2018-05-21T11:03:30.814Z,990.75
2018-05-21T11:04:30.836Z,990.76
2018-05-21T11:05:30.812Z,990.74
2018-05-21T11:06:30.802Z,990.82
2018-05-21T11:07:30.799Z,990.69
2018-05-21T11:08:30.792Z,990.67
2018-05-21T11:09:30.791Z,990.71
2018-05-21T11:10:30.785Z,990.68
2018-05-21T11:11:30.780Z,990.66
2018-05-21T11:12:30.771Z,990.68
2018-05-21T11:13:30.766Z,990.67
2018-05-21T11:14:30.766Z,990.62
2018-05-21T11:15:30.757Z,990.58
2018-05-21T11:16:30.751Z,990.54
2018-05-21T11:17:30.751Z,990.57
2018-05-21T11:18:30.740Z,990.63
2018-05-21T11:19:30.734Z,990.62
2018-05-21T11:20:30.729Z,990.66
2018-05-21T11:21:30.760Z,990.62
2018-05-21T11:22:30.720Z,990.65
2018-05-21T11:23:30.715Z,990.61
2018-05-21T11:24:30.760Z,990.61
2018-05-21T11:25:30.702Z,990.59
2018-05-21T11:26:30.701Z,990.55
2018-05-21T11:27:30.694Z,990.61
2018-05-21T11:28:30.687Z,990.56
2018-05-21T11:29:30.681Z,990.52
2018-05-21T11:30:30.679Z,990.48
2018-05-21T11:31:30.675Z,990.47
2018-05-21T11:32:30.666Z,990.45
2018-05-21T11:33:30.661Z,990.48
2018-05-21T11:34:30.656Z,990.49
2018-05-21T11:35:30.651Z,990.46
2018-05-21T11:36:30.644Z,990.52
2018-05-21T11:37:30.641Z,990.46
2018-05-21T11:38:30.635Z,990.44
2018-05-21T11:39:30.662Z,990.43
2018-05-21T11:40:30.622Z,990.38
2018-05-21T11:41:30.618Z,990.36
2018-05-21T11:42:30.613Z,990.39
2018-05-21T11:43:30.609Z,990.36
2018-05-21T11:44:30.602Z,990.34
2018-05-21T11:45:30.624Z,990.38
2018-05-21T11:46:30.594Z,990.32
2018-05-21T11:47:30.586Z,990.30
2018-05-21T11:48:30.578Z,990.28
2018-05-21T11:49:30.574Z,990.32
2018-05-21T11:50:30.572Z,990.31
2018-05-21T11:51:30.566Z,990.30
2018-05-21T11:52:30.563Z,990.27
2018-05-21T11:53:30.555Z,990.23
2018-05-21T11:54:30.551Z,990.22
2018-05-21T11:55:30.544Z,990.27
2018-05-21T11:56:30.541Z,990.29
2018-05-21T11:57:30.532Z,990.28
2018-05-21T11:58:30.547Z,990.29
2018-05-21T11:59:30.518Z,990.33
2018-05-21T12:00:30.516Z,990.31
2018-05-21T12:01:30.513Z,990.30
2018-05-21T12:02:30.506Z,990.29
2018-05-21T12:03:30.509Z,990.21
2018-05-21T12:04:30.495Z,990.22
2018-05-21T12:05:30.489Z,990.19
2018-05-21T12:06:30.485Z,990.15
2018-05-21T12:07:30.481Z,990.16
2018-05-21T12:08:30.473Z,990.17
2018-05-21T12:09:30.468Z,990.15
2018-05-21T12:10:30.464Z,990.14
2018-05-21T12:11:30.460Z,990.14
2018-05-21T12:12:30.455Z,990.19
2018-05-21T12:13:30.451Z,990.13
2018-05-21T12:14:30.443Z,990.07
2018-05-21T12:15:30.437Z,990.09
2018-05-21T12:16:30.428Z,990.02
2018-05-21T12:17:30.429Z,990.08
2018-05-21T12:18:30.420Z,990.07
2018-05-21T12:19:30.416Z,990.05
2018-05-21T12:20:30.409Z,990.02
2018-05-21T12:21:30.404Z,990.07
2018-05-21T12:22:30.409Z,990.04
2018-05-21T12:23:30.394Z,990.02
2018-05-21T12:24:30.389Z,990.04
2018-05-21T12:25:30.383Z,990.02
2018-05-21T12:26:30.383Z,990.02
2018-05-21T12:27:30.374Z,989.99
2018-05-21T12:28:30.368Z,990.01